sensor_id;sensor_type;location;lat;lon;timestamp;P1;durP1;ratioP1;P2;durP2;ratioP2
57389;SDS011;43217;52.694;6.214;2023-02-11T00:01:07;21.00;;;8.13;;
57389;SDS011;43217;52.694;6.214;2023-02-11T00:03:35;19.58;;;7.43;;
57389;SDS011;43217;52.694;6.214;2023-02-11T00:06:04;19.08;;;6.88;;
57389;SDS011;43217;52.694;6.214;2023-02-11T00:08:33;18.48;;;7.50;;
57389;SDS011;43217;52.694;6.214;2023-02-11T00:10:59;26.13;;;6.82;;
57389;SDS011;43217;52.694;6.214;2023-02-11T00:13:25;16.40;;;6.55;;
57389;SDS011;43217;52.694;6.214;2023-02-11T00:15:51;18.20;;;7.07;;
57389;SDS011;43217;52.694;6.214;2023-02-11T00:18:17;16.85;;;6.40;;
57389;SDS011;43217;52.694;6.214;2023-02-11T00:20:43;14.63;;;6.45;;
57389;SDS011;43217;52.694;6.214;2023-02-11T00:23:09;17.92;;;6.07;;
57389;SDS011;43217;52.694;6.214;2023-02-11T00:25:41;18.52;;;6.88;;
57389;SDS011;43217;52.694;6.214;2023-02-11T00:28:09;19.20;;;7.25;;
57389;SDS011;43217;52.694;6.214;2023-02-11T00:30:35;18.90;;;6.28;;
57389;SDS011;43217;52.694;6.214;2023-02-11T00:33:01;19.65;;;6.68;;
57389;SDS011;43217;52.694;6.214;2023-02-11T00:35:27;14.52;;;6.47;;
57389;SDS011;43217;52.694;6.214;2023-02-11T00:37:53;20.02;;;6.88;;
57389;SDS011;43217;52.694;6.214;2023-02-11T00:40:20;17.80;;;6.68;;
57389;SDS011;43217;52.694;6.214;2023-02-11T00:42:46;16.45;;;6.30;;
57389;SDS011;43217;52.694;6.214;2023-02-11T00:45:12;21.15;;;6.40;;
57389;SDS011;43217;52.694;6.214;2023-02-11T00:47:38;22.00;;;7.05;;
57389;SDS011;43217;52.694;6.214;2023-02-11T00:50:04;17.95;;;5.88;;
57389;SDS011;43217;52.694;6.214;2023-02-11T00:52:30;14.18;;;6.18;;
57389;SDS011;43217;52.694;6.214;2023-02-11T00:54:56;16.55;;;6.57;;
57389;SDS011;43217;52.694;6.214;2023-02-11T00:57:22;16.80;;;6.88;;
57389;SDS011;43217;52.694;6.214;2023-02-11T00:59:48;22.77;;;6.93;;
57389;SDS011;43217;52.694;6.214;2023-02-11T01:02:14;22.17;;;7.13;;
57389;SDS011;43217;52.694;6.214;2023-02-11T01:04:40;15.05;;;6.35;;
57389;SDS011;43217;52.694;6.214;2023-02-11T01:07:07;19.48;;;6.47;;
57389;SDS011;43217;52.694;6.214;2023-02-11T01:09:33;19.35;;;7.47;;
57389;SDS011;43217;52.694;6.214;2023-02-11T01:11:58;22.10;;;8.02;;
57389;SDS011;43217;52.694;6.214;2023-02-11T01:14:24;20.17;;;6.97;;
57389;SDS011;43217;52.694;6.214;2023-02-11T01:16:50;18.95;;;6.80;;
57389;SDS011;43217;52.694;6.214;2023-02-11T01:19:15;20.33;;;6.80;;
57389;SDS011;43217;52.694;6.214;2023-02-11T01:21:41;18.75;;;7.07;;
57389;SDS011;43217;52.694;6.214;2023-02-11T01:24:07;20.08;;;7.60;;
57389;SDS011;43217;52.694;6.214;2023-02-11T01:26:32;20.65;;;7.30;;
57389;SDS011;43217;52.694;6.214;2023-02-11T01:28:58;21.08;;;7.72;;
57389;SDS011;43217;52.694;6.214;2023-02-11T01:31:25;20.75;;;7.38;;
57389;SDS011;43217;52.694;6.214;2023-02-11T01:33:51;17.15;;;6.95;;
57389;SDS011;43217;52.694;6.214;2023-02-11T01:36:16;17.45;;;7.35;;
57389;SDS011;43217;52.694;6.214;2023-02-11T01:38:42;18.42;;;6.97;;
57389;SDS011;43217;52.694;6.214;2023-02-11T01:41:09;22.95;;;7.57;;
57389;SDS011;43217;52.694;6.214;2023-02-11T01:43:38;22.80;;;8.38;;
57389;SDS011;43217;52.694;6.214;2023-02-11T01:49:08;20.40;;;7.45;;
57389;SDS011;43217;52.694;6.214;2023-02-11T01:54:05;18.35;;;7.20;;
57389;SDS011;43217;52.694;6.214;2023-02-11T01:56:52;19.17;;;7.22;;
57389;SDS011;43217;52.694;6.214;2023-02-11T01:59:43;17.55;;;7.00;;
57389;SDS011;43217;52.694;6.214;2023-02-11T02:02:16;23.60;;;8.25;;
57389;SDS011;43217;52.694;6.214;2023-02-11T02:04:49;23.00;;;8.85;;
57389;SDS011;43217;52.694;6.214;2023-02-11T02:07:24;21.45;;;8.05;;
57389;SDS011;43217;52.694;6.214;2023-02-11T02:10:07;20.02;;;7.68;;
57389;SDS011;43217;52.694;6.214;2023-02-11T02:12:37;23.88;;;8.43;;
57389;SDS011;43217;52.694;6.214;2023-02-11T02:15:23;25.42;;;9.10;;
57389;SDS011;43217;52.694;6.214;2023-02-11T02:17:53;22.10;;;8.77;;
57389;SDS011;43217;52.694;6.214;2023-02-11T02:20:49;23.70;;;9.13;;
57389;SDS011;43217;52.694;6.214;2023-02-11T02:23:22;25.55;;;9.48;;
57389;SDS011;43217;52.694;6.214;2023-02-11T02:26:11;27.13;;;9.57;;
57389;SDS011;43217;52.694;6.214;2023-02-11T02:34:43;22.52;;;9.55;;
57389;SDS011;43217;52.694;6.214;2023-02-11T02:40:06;24.77;;;9.88;;
57389;SDS011;43217;52.694;6.214;2023-02-11T02:42:38;25.55;;;10.50;;
57389;SDS011;43217;52.694;6.214;2023-02-11T02:45:06;20.55;;;9.75;;
57389;SDS011;43217;52.694;6.214;2023-02-11T02:47:33;18.88;;;10.82;;
57389;SDS011;43217;52.694;6.214;2023-02-11T02:49:58;22.80;;;11.05;;
57389;SDS011;43217;52.694;6.214;2023-02-11T02:52:34;24.02;;;11.80;;
57389;SDS011;43217;52.694;6.214;2023-02-11T02:55:11;25.02;;;11.38;;
57389;SDS011;43217;52.694;6.214;2023-02-11T03:00:31;25.85;;;12.38;;
57389;SDS011;43217;52.694;6.214;2023-02-11T03:03:21;26.92;;;12.63;;
57389;SDS011;43217;52.694;6.214;2023-02-11T03:06:00;25.98;;;12.55;;
57389;SDS011;43217;52.694;6.214;2023-02-11T03:11:30;30.25;;;14.05;;
57389;SDS011;43217;52.694;6.214;2023-02-11T03:13:56;28.48;;;12.63;;
57389;SDS011;43217;52.694;6.214;2023-02-11T03:16:26;25.85;;;13.18;;
57389;SDS011;43217;52.694;6.214;2023-02-11T03:19:02;30.13;;;14.55;;
57389;SDS011;43217;52.694;6.214;2023-02-11T03:21:39;30.73;;;14.48;;
57389;SDS011;43217;52.694;6.214;2023-02-11T03:24:12;28.60;;;13.82;;
57389;SDS011;43217;52.694;6.214;2023-02-11T03:26:52;29.10;;;14.40;;
57389;SDS011;43217;52.694;6.214;2023-02-11T03:31:54;30.52;;;14.85;;
57389;SDS011;43217;52.694;6.214;2023-02-11T03:34:33;31.15;;;15.63;;
57389;SDS011;43217;52.694;6.214;2023-02-11T03:39:49;30.85;;;16.05;;
57389;SDS011;43217;52.694;6.214;2023-02-11T03:42:18;30.67;;;16.50;;
57389;SDS011;43217;52.694;6.214;2023-02-11T03:44:50;33.50;;;17.17;;
57389;SDS011;43217;52.694;6.214;2023-02-11T03:47:22;32.35;;;16.80;;
57389;SDS011;43217;52.694;6.214;2023-02-11T03:49:50;29.00;;;16.58;;
57389;SDS011;43217;52.694;6.214;2023-02-11T03:52:19;31.40;;;17.40;;
57389;SDS011;43217;52.694;6.214;2023-02-11T03:54:47;37.67;;;18.08;;
57389;SDS011;43217;52.694;6.214;2023-02-11T03:57:17;37.30;;;17.25;;
57389;SDS011;43217;52.694;6.214;2023-02-11T03:59:53;33.83;;;17.58;;
57389;SDS011;43217;52.694;6.214;2023-02-11T04:04:48;39.03;;;18.98;;
57389;SDS011;43217;52.694;6.214;2023-02-11T04:07:13;34.72;;;17.00;;
57389;SDS011;43217;52.694;6.214;2023-02-11T04:09:39;37.50;;;18.17;;
57389;SDS011;43217;52.694;6.214;2023-02-11T04:12:05;32.10;;;17.45;;
57389;SDS011;43217;52.694;6.214;2023-02-11T04:14:31;34.33;;;18.42;;
57389;SDS011;43217;52.694;6.214;2023-02-11T04:16:56;40.90;;;21.00;;
57389;SDS011;43217;52.694;6.214;2023-02-11T04:19:22;36.38;;;19.65;;
57389;SDS011;43217;52.694;6.214;2023-02-11T04:21:47;36.67;;;19.45;;
57389;SDS011;43217;52.694;6.214;2023-02-11T04:24:13;36.90;;;19.77;;
57389;SDS011;43217;52.694;6.214;2023-02-11T04:26:38;40.00;;;21.13;;
57389;SDS011;43217;52.694;6.214;2023-02-11T04:29:04;39.88;;;19.73;;
57389;SDS011;43217;52.694;6.214;2023-02-11T04:31:30;38.20;;;20.08;;
57389;SDS011;43217;52.694;6.214;2023-02-11T04:33:55;34.70;;;19.95;;
57389;SDS011;43217;52.694;6.214;2023-02-11T04:36:21;39.78;;;20.95;;
57389;SDS011;43217;52.694;6.214;2023-02-11T04:38:46;37.70;;;20.88;;
57389;SDS011;43217;52.694;6.214;2023-02-11T04:41:12;38.97;;;21.00;;
57389;SDS011;43217;52.694;6.214;2023-02-11T04:43:38;45.88;;;22.85;;
57389;SDS011;43217;52.694;6.214;2023-02-11T04:46:03;42.63;;;22.33;;
57389;SDS011;43217;52.694;6.214;2023-02-11T04:48:29;44.90;;;24.40;;
57389;SDS011;43217;52.694;6.214;2023-02-11T04:50:55;42.83;;;22.45;;
57389;SDS011;43217;52.694;6.214;2023-02-11T04:53:20;49.33;;;24.90;;
57389;SDS011;43217;52.694;6.214;2023-02-11T04:55:49;47.78;;;24.88;;
57389;SDS011;43217;52.694;6.214;2023-02-11T04:58:15;48.22;;;26.00;;
57389;SDS011;43217;52.694;6.214;2023-02-11T05:00:41;48.70;;;27.50;;
57389;SDS011;43217;52.694;6.214;2023-02-11T05:03:07;49.83;;;27.48;;
57389;SDS011;43217;52.694;6.214;2023-02-11T05:05:33;51.20;;;28.30;;
57389;SDS011;43217;52.694;6.214;2023-02-11T05:07:58;48.67;;;27.15;;
57389;SDS011;43217;52.694;6.214;2023-02-11T05:10:24;54.25;;;28.90;;
57389;SDS011;43217;52.694;6.214;2023-02-11T05:12:50;50.05;;;29.17;;
57389;SDS011;43217;52.694;6.214;2023-02-11T05:15:15;48.85;;;28.63;;
57389;SDS011;43217;52.694;6.214;2023-02-11T05:17:41;51.50;;;29.35;;
57389;SDS011;43217;52.694;6.214;2023-02-11T05:20:07;55.38;;;29.17;;
57389;SDS011;43217;52.694;6.214;2023-02-11T05:22:33;49.38;;;27.45;;
57389;SDS011;43217;52.694;6.214;2023-02-11T05:24:58;51.38;;;28.77;;
57389;SDS011;43217;52.694;6.214;2023-02-11T05:27:24;50.47;;;27.98;;
57389;SDS011;43217;52.694;6.214;2023-02-11T05:29:50;51.83;;;28.83;;
57389;SDS011;43217;52.694;6.214;2023-02-11T05:32:16;50.22;;;29.48;;
57389;SDS011;43217;52.694;6.214;2023-02-11T05:34:42;52.63;;;28.23;;
57389;SDS011;43217;52.694;6.214;2023-02-11T05:37:08;48.78;;;26.45;;
57389;SDS011;43217;52.694;6.214;2023-02-11T05:39:37;47.20;;;26.92;;
57389;SDS011;43217;52.694;6.214;2023-02-11T05:42:04;49.28;;;26.60;;
57389;SDS011;43217;52.694;6.214;2023-02-11T05:44:30;47.92;;;26.50;;
57389;SDS011;43217;52.694;6.214;2023-02-11T05:46:56;50.78;;;27.85;;
57389;SDS011;43217;52.694;6.214;2023-02-11T05:49:21;49.03;;;26.67;;
57389;SDS011;43217;52.694;6.214;2023-02-11T05:51:50;49.38;;;28.15;;
57389;SDS011;43217;52.694;6.214;2023-02-11T05:54:15;49.80;;;26.73;;
57389;SDS011;43217;52.694;6.214;2023-02-11T05:56:41;46.03;;;26.27;;
57389;SDS011;43217;52.694;6.214;2023-02-11T05:59:07;49.40;;;27.48;;
57389;SDS011;43217;52.694;6.214;2023-02-11T06:01:33;50.60;;;27.73;;
57389;SDS011;43217;52.694;6.214;2023-02-11T06:03:59;47.22;;;26.90;;
57389;SDS011;43217;52.694;6.214;2023-02-11T06:06:32;49.85;;;26.25;;
57389;SDS011;43217;52.694;6.214;2023-02-11T06:09:00;46.22;;;25.85;;
57389;SDS011;43217;52.694;6.214;2023-02-11T06:11:25;51.50;;;28.58;;
57389;SDS011;43217;52.694;6.214;2023-02-11T06:13:51;50.60;;;27.13;;
57389;SDS011;43217;52.694;6.214;2023-02-11T06:16:17;49.17;;;28.77;;
57389;SDS011;43217;52.694;6.214;2023-02-11T06:18:42;47.15;;;28.63;;
57389;SDS011;43217;52.694;6.214;2023-02-11T06:21:08;48.60;;;27.92;;
57389;SDS011;43217;52.694;6.214;2023-02-11T06:23:35;51.13;;;28.42;;
57389;SDS011;43217;52.694;6.214;2023-02-11T06:26:02;52.90;;;27.80;;
57389;SDS011;43217;52.694;6.214;2023-02-11T06:28:29;54.25;;;29.10;;
57389;SDS011;43217;52.694;6.214;2023-02-11T06:30:57;53.72;;;26.98;;
57389;SDS011;43217;52.694;6.214;2023-02-11T06:33:28;51.17;;;28.75;;
57389;SDS011;43217;52.694;6.214;2023-02-11T06:35:53;47.15;;;27.63;;
57389;SDS011;43217;52.694;6.214;2023-02-11T06:38:19;48.22;;;27.83;;
57389;SDS011;43217;52.694;6.214;2023-02-11T06:40:48;47.50;;;29.52;;
57389;SDS011;43217;52.694;6.214;2023-02-11T06:43:14;55.75;;;28.73;;
57389;SDS011;43217;52.694;6.214;2023-02-11T06:45:41;54.50;;;31.02;;
57389;SDS011;43217;52.694;6.214;2023-02-11T06:48:07;51.92;;;31.23;;
57389;SDS011;43217;52.694;6.214;2023-02-11T06:50:32;49.70;;;31.13;;
57389;SDS011;43217;52.694;6.214;2023-02-11T06:53:05;54.42;;;31.75;;
57389;SDS011;43217;52.694;6.214;2023-02-11T06:55:33;52.40;;;31.88;;
57389;SDS011;43217;52.694;6.214;2023-02-11T07:00:24;54.30;;;32.15;;
57389;SDS011;43217;52.694;6.214;2023-02-11T07:02:50;54.50;;;32.83;;
57389;SDS011;43217;52.694;6.214;2023-02-11T07:05:16;62.08;;;34.33;;
57389;SDS011;43217;52.694;6.214;2023-02-11T07:07:41;62.85;;;35.45;;
57389;SDS011;43217;52.694;6.214;2023-02-11T07:10:07;60.03;;;36.53;;
57389;SDS011;43217;52.694;6.214;2023-02-11T07:12:33;66.47;;;36.78;;
57389;SDS011;43217;52.694;6.214;2023-02-11T07:14:58;65.15;;;36.03;;
57389;SDS011;43217;52.694;6.214;2023-02-11T07:17:24;64.45;;;35.47;;
57389;SDS011;43217;52.694;6.214;2023-02-11T07:19:50;56.95;;;34.55;;
57389;SDS011;43217;52.694;6.214;2023-02-11T07:22:15;63.95;;;35.22;;
57389;SDS011;43217;52.694;6.214;2023-02-11T07:24:42;64.70;;;35.35;;
57389;SDS011;43217;52.694;6.214;2023-02-11T07:27:08;58.35;;;34.03;;
57389;SDS011;43217;52.694;6.214;2023-02-11T07:29:33;61.83;;;36.17;;
57389;SDS011;43217;52.694;6.214;2023-02-11T07:31:59;63.15;;;36.33;;
57389;SDS011;43217;52.694;6.214;2023-02-11T07:34:24;63.00;;;37.22;;
57389;SDS011;43217;52.694;6.214;2023-02-11T07:36:50;63.95;;;38.17;;
57389;SDS011;43217;52.694;6.214;2023-02-11T07:39:16;64.72;;;38.80;;
57389;SDS011;43217;52.694;6.214;2023-02-11T07:41:41;67.45;;;38.33;;
57389;SDS011;43217;52.694;6.214;2023-02-11T07:44:08;68.03;;;37.22;;
57389;SDS011;43217;52.694;6.214;2023-02-11T07:46:35;68.10;;;38.60;;
57389;SDS011;43217;52.694;6.214;2023-02-11T07:49:00;62.47;;;34.65;;
57389;SDS011;43217;52.694;6.214;2023-02-11T07:51:27;57.95;;;33.63;;
57389;SDS011;43217;52.694;6.214;2023-02-11T07:53:54;58.88;;;33.28;;
57389;SDS011;43217;52.694;6.214;2023-02-11T07:56:22;60.85;;;34.92;;
57389;SDS011;43217;52.694;6.214;2023-02-11T07:58:48;64.13;;;36.25;;
57389;SDS011;43217;52.694;6.214;2023-02-11T08:01:18;57.88;;;33.88;;
57389;SDS011;43217;52.694;6.214;2023-02-11T08:03:49;59.22;;;35.67;;
57389;SDS011;43217;52.694;6.214;2023-02-11T08:06:16;63.72;;;36.92;;
57389;SDS011;43217;52.694;6.214;2023-02-11T08:08:44;58.15;;;34.45;;
57389;SDS011;43217;52.694;6.214;2023-02-11T08:11:19;56.17;;;33.78;;
57389;SDS011;43217;52.694;6.214;2023-02-11T08:13:49;50.38;;;32.38;;
57389;SDS011;43217;52.694;6.214;2023-02-11T08:16:20;50.55;;;31.10;;
57389;SDS011;43217;52.694;6.214;2023-02-11T08:18:48;54.33;;;32.08;;
57389;SDS011;43217;52.694;6.214;2023-02-11T08:21:14;55.10;;;32.28;;
57389;SDS011;43217;52.694;6.214;2023-02-11T08:23:40;57.90;;;33.75;;
57389;SDS011;43217;52.694;6.214;2023-02-11T08:26:08;60.92;;;34.00;;
57389;SDS011;43217;52.694;6.214;2023-02-11T08:28:39;54.60;;;32.47;;
57389;SDS011;43217;52.694;6.214;2023-02-11T08:31:07;53.70;;;32.72;;
57389;SDS011;43217;52.694;6.214;2023-02-11T08:33:35;57.03;;;33.70;;
57389;SDS011;43217;52.694;6.214;2023-02-11T08:36:01;52.70;;;33.03;;
57389;SDS011;43217;52.694;6.214;2023-02-11T08:38:36;57.05;;;34.50;;
57389;SDS011;43217;52.694;6.214;2023-02-11T08:41:02;59.15;;;36.47;;
57389;SDS011;43217;52.694;6.214;2023-02-11T08:43:28;58.95;;;35.17;;
57389;SDS011;43217;52.694;6.214;2023-02-11T08:45:53;58.90;;;35.85;;
57389;SDS011;43217;52.694;6.214;2023-02-11T08:48:19;55.95;;;35.03;;
57389;SDS011;43217;52.694;6.214;2023-02-11T08:50:44;56.03;;;34.10;;
57389;SDS011;43217;52.694;6.214;2023-02-11T08:53:10;47.13;;;30.20;;
57389;SDS011;43217;52.694;6.214;2023-02-11T08:55:36;51.72;;;30.25;;
57389;SDS011;43217;52.694;6.214;2023-02-11T08:58:01;43.25;;;27.40;;
57389;SDS011;43217;52.694;6.214;2023-02-11T09:00:27;42.92;;;27.63;;
57389;SDS011;43217;52.694;6.214;2023-02-11T09:02:52;44.17;;;26.15;;
57389;SDS011;43217;52.694;6.214;2023-02-11T09:05:18;38.30;;;25.33;;
57389;SDS011;43217;52.694;6.214;2023-02-11T09:07:44;38.65;;;25.35;;
57389;SDS011;43217;52.694;6.214;2023-02-11T09:10:09;37.33;;;24.15;;
57389;SDS011;43217;52.694;6.214;2023-02-11T09:12:35;36.17;;;23.95;;
57389;SDS011;43217;52.694;6.214;2023-02-11T09:15:01;39.60;;;23.08;;
57389;SDS011;43217;52.694;6.214;2023-02-11T09:17:26;32.97;;;22.27;;
57389;SDS011;43217;52.694;6.214;2023-02-11T09:19:52;33.97;;;21.27;;
57389;SDS011;43217;52.694;6.214;2023-02-11T09:22:17;33.15;;;21.73;;
57389;SDS011;43217;52.694;6.214;2023-02-11T09:24:43;37.13;;;21.35;;
57389;SDS011;43217;52.694;6.214;2023-02-11T09:27:09;30.40;;;20.35;;
57389;SDS011;43217;52.694;6.214;2023-02-11T09:29:34;28.55;;;20.45;;
57389;SDS011;43217;52.694;6.214;2023-02-11T09:32:00;32.47;;;20.08;;
57389;SDS011;43217;52.694;6.214;2023-02-11T09:34:25;31.33;;;19.55;;
57389;SDS011;43217;52.694;6.214;2023-02-11T09:36:51;29.08;;;20.00;;
57389;SDS011;43217;52.694;6.214;2023-02-11T09:39:17;30.92;;;20.00;;
57389;SDS011;43217;52.694;6.214;2023-02-11T09:41:58;34.85;;;21.48;;
57389;SDS011;43217;52.694;6.214;2023-02-11T09:44:34;28.98;;;19.08;;
57389;SDS011;43217;52.694;6.214;2023-02-11T09:54:57;25.05;;;16.70;;
57389;SDS011;43217;52.694;6.214;2023-02-11T09:57:25;27.58;;;16.77;;
57389;SDS011;43217;52.694;6.214;2023-02-11T09:59:56;27.30;;;16.27;;
57389;SDS011;43217;52.694;6.214;2023-02-11T10:02:35;23.67;;;15.63;;
57389;SDS011;43217;52.694;6.214;2023-02-11T10:08:06;24.60;;;16.45;;
57389;SDS011;43217;52.694;6.214;2023-02-11T10:10:42;24.67;;;16.35;;
57389;SDS011;43217;52.694;6.214;2023-02-11T10:24:17;23.08;;;14.60;;
57389;SDS011;43217;52.694;6.214;2023-02-11T10:26:44;24.23;;;15.15;;
57389;SDS011;43217;52.694;6.214;2023-02-11T10:29:33;25.67;;;16.20;;
57389;SDS011;43217;52.694;6.214;2023-02-11T10:32:14;23.60;;;15.07;;
57389;SDS011;43217;52.694;6.214;2023-02-11T10:34:55;24.27;;;14.80;;
57389;SDS011;43217;52.694;6.214;2023-02-11T10:37:25;23.02;;;15.15;;
57389;SDS011;43217;52.694;6.214;2023-02-11T10:39:51;22.50;;;14.93;;
57389;SDS011;43217;52.694;6.214;2023-02-11T10:42:17;24.63;;;15.38;;
57389;SDS011;43217;52.694;6.214;2023-02-11T10:44:54;24.38;;;14.55;;
57389;SDS011;43217;52.694;6.214;2023-02-11T10:47:31;21.52;;;15.00;;
57389;SDS011;43217;52.694;6.214;2023-02-11T10:50:03;19.80;;;13.95;;
57389;SDS011;43217;52.694;6.214;2023-02-11T10:53:11;26.13;;;15.48;;
57389;SDS011;43217;52.694;6.214;2023-02-11T10:55:48;26.77;;;15.85;;
57389;SDS011;43217;52.694;6.214;2023-02-11T10:58:24;22.55;;;16.25;;
57389;SDS011;43217;52.694;6.214;2023-02-11T11:00:55;20.00;;;13.98;;
57389;SDS011;43217;52.694;6.214;2023-02-11T11:03:23;24.05;;;14.43;;
57389;SDS011;43217;52.694;6.214;2023-02-11T11:06:03;20.33;;;14.05;;
57389;SDS011;43217;52.694;6.214;2023-02-11T11:08:42;18.75;;;14.05;;
57389;SDS011;43217;52.694;6.214;2023-02-11T11:11:18;18.17;;;13.55;;
57389;SDS011;43217;52.694;6.214;2023-02-11T11:16:18;20.80;;;14.07;;
57389;SDS011;43217;52.694;6.214;2023-02-11T11:18:46;21.23;;;13.90;;
57389;SDS011;43217;52.694;6.214;2023-02-11T11:23:54;19.40;;;14.05;;
57389;SDS011;43217;52.694;6.214;2023-02-11T11:26:22;20.00;;;13.07;;
57389;SDS011;43217;52.694;6.214;2023-02-11T11:28:52;22.05;;;14.82;;
57389;SDS011;43217;52.694;6.214;2023-02-11T11:31:32;22.42;;;14.90;;
57389;SDS011;43217;52.694;6.214;2023-02-11T11:34:02;22.55;;;15.25;;
57389;SDS011;43217;52.694;6.214;2023-02-11T11:36:42;21.23;;;13.90;;
57389;SDS011;43217;52.694;6.214;2023-02-11T11:39:22;22.17;;;14.77;;
57389;SDS011;43217;52.694;6.214;2023-02-11T11:41:53;22.75;;;14.90;;
57389;SDS011;43217;52.694;6.214;2023-02-11T11:44:32;27.70;;;15.45;;
57389;SDS011;43217;52.694;6.214;2023-02-11T11:47:07;27.40;;;16.60;;
57389;SDS011;43217;52.694;6.214;2023-02-11T11:55:26;16.85;;;12.50;;
57389;SDS011;43217;52.694;6.214;2023-02-11T11:57:57;17.85;;;11.40;;
57389;SDS011;43217;52.694;6.214;2023-02-11T12:00:25;21.02;;;11.88;;
57389;SDS011;43217;52.694;6.214;2023-02-11T12:05:41;17.25;;;10.85;;
57389;SDS011;43217;52.694;6.214;2023-02-11T12:10:51;15.90;;;11.27;;
57389;SDS011;43217;52.694;6.214;2023-02-11T12:19:41;23.10;;;11.48;;
57389;SDS011;43217;52.694;6.214;2023-02-11T12:25:04;14.88;;;10.23;;
57389;SDS011;43217;52.694;6.214;2023-02-11T12:30:21;14.50;;;9.80;;
57389;SDS011;43217;52.694;6.214;2023-02-11T12:33:15;15.27;;;10.32;;
57389;SDS011;43217;52.694;6.214;2023-02-11T12:38:31;15.88;;;9.45;;
57389;SDS011;43217;52.694;6.214;2023-02-11T12:44:20;12.55;;;8.77;;
57389;SDS011;43217;52.694;6.214;2023-02-11T12:47:24;14.32;;;8.02;;
57389;SDS011;43217;52.694;6.214;2023-02-11T12:52:35;14.35;;;7.20;;
57389;SDS011;43217;52.694;6.214;2023-02-11T12:55:18;15.60;;;7.88;;
57389;SDS011;43217;52.694;6.214;2023-02-11T12:57:46;9.23;;;6.15;;
57389;SDS011;43217;52.694;6.214;2023-02-11T13:00:17;8.75;;;6.20;;
57389;SDS011;43217;52.694;6.214;2023-02-11T13:08:39;10.15;;;5.65;;
57389;SDS011;43217;52.694;6.214;2023-02-11T13:10:51;9.70;;;4.95;;
57389;SDS011;43217;52.694;6.214;2023-02-11T13:13:21;9.15;;;5.10;;
57389;SDS011;43217;52.694;6.214;2023-02-11T13:15:52;10.77;;;4.72;;
57389;SDS011;43217;52.694;6.214;2023-02-11T13:23:44;12.10;;;5.57;;
57389;SDS011;43217;52.694;6.214;2023-02-11T13:32:09;10.52;;;4.85;;
57389;SDS011;43217;52.694;6.214;2023-02-11T13:40:09;12.07;;;4.60;;
57389;SDS011;43217;52.694;6.214;2023-02-11T13:42:53;10.02;;;5.28;;
57389;SDS011;43217;52.694;6.214;2023-02-11T13:48:04;13.70;;;5.70;;
57389;SDS011;43217;52.694;6.214;2023-02-11T13:50:35;11.75;;;4.70;;
57389;SDS011;43217;52.694;6.214;2023-02-11T13:53:04;11.65;;;4.95;;
57389;SDS011;43217;52.694;6.214;2023-02-11T13:55:32;9.32;;;4.82;;
57389;SDS011;43217;52.694;6.214;2023-02-11T14:14:15;8.65;;;3.85;;
57389;SDS011;43217;52.694;6.214;2023-02-11T14:24:46;9.48;;;3.72;;
57389;SDS011;43217;52.694;6.214;2023-02-11T14:29:59;9.73;;;3.80;;
57389;SDS011;43217;52.694;6.214;2023-02-11T14:41:26;9.95;;;4.07;;
57389;SDS011;43217;52.694;6.214;2023-02-11T14:43:55;10.75;;;4.25;;
57389;SDS011;43217;52.694;6.214;2023-02-11T14:46:23;7.85;;;3.40;;
57389;SDS011;43217;52.694;6.214;2023-02-11T14:48:52;9.30;;;3.60;;
57389;SDS011;43217;52.694;6.214;2023-02-11T14:51:22;8.32;;;3.70;;
57389;SDS011;43217;52.694;6.214;2023-02-11T14:53:52;9.43;;;3.97;;
57389;SDS011;43217;52.694;6.214;2023-02-11T14:58:50;8.93;;;3.85;;
57389;SDS011;43217;52.694;6.214;2023-02-11T15:01:33;8.18;;;3.40;;
57389;SDS011;43217;52.694;6.214;2023-02-11T15:04:04;9.13;;;3.58;;
57389;SDS011;43217;52.694;6.214;2023-02-11T15:06:46;8.23;;;3.53;;
57389;SDS011;43217;52.694;6.214;2023-02-11T15:09:16;11.35;;;3.38;;
57389;SDS011;43217;52.694;6.214;2023-02-11T15:12:01;9.00;;;3.13;;
57389;SDS011;43217;52.694;6.214;2023-02-11T15:14:31;8.48;;;3.22;;
57389;SDS011;43217;52.694;6.214;2023-02-11T15:17:02;9.98;;;3.55;;
57389;SDS011;43217;52.694;6.214;2023-02-11T15:19:33;8.57;;;3.10;;
57389;SDS011;43217;52.694;6.214;2023-02-11T15:27:36;8.68;;;4.07;;
57389;SDS011;43217;52.694;6.214;2023-02-11T15:32:47;7.20;;;3.55;;
57389;SDS011;43217;52.694;6.214;2023-02-11T15:35:14;13.32;;;3.67;;
57389;SDS011;43217;52.694;6.214;2023-02-11T15:37:42;9.30;;;3.80;;
57389;SDS011;43217;52.694;6.214;2023-02-11T15:40:10;8.10;;;3.47;;
57389;SDS011;43217;52.694;6.214;2023-02-11T15:42:51;8.07;;;3.92;;
57389;SDS011;43217;52.694;6.214;2023-02-11T15:45:33;10.88;;;3.90;;
57389;SDS011;43217;52.694;6.214;2023-02-11T15:48:15;10.10;;;3.95;;
57389;SDS011;43217;52.694;6.214;2023-02-11T15:50:54;9.65;;;4.65;;
57389;SDS011;43217;52.694;6.214;2023-02-11T15:53:36;14.20;;;8.45;;
57389;SDS011;43217;52.694;6.214;2023-02-11T15:59:17;22.75;;;16.42;;
57389;SDS011;43217;52.694;6.214;2023-02-11T16:01:49;20.25;;;12.80;;
57389;SDS011;43217;52.694;6.214;2023-02-11T16:04:19;10.48;;;5.57;;
57389;SDS011;43217;52.694;6.214;2023-02-11T16:06:47;10.85;;;7.20;;
57389;SDS011;43217;52.694;6.214;2023-02-11T16:17:06;9.88;;;4.78;;
57389;SDS011;43217;52.694;6.214;2023-02-11T16:19:35;9.55;;;4.60;;
57389;SDS011;43217;52.694;6.214;2023-02-11T16:24:56;8.68;;;4.57;;
57389;SDS011;43217;52.694;6.214;2023-02-11T16:30:54;8.20;;;3.90;;
57389;SDS011;43217;52.694;6.214;2023-02-11T16:33:02;14.45;;;8.75;;
57389;SDS011;43217;52.694;6.214;2023-02-11T16:35:29;23.85;;;18.48;;
57389;SDS011;43217;52.694;6.214;2023-02-11T16:37:55;20.65;;;13.82;;
57389;SDS011;43217;52.694;6.214;2023-02-11T16:40:20;8.10;;;4.93;;
57389;SDS011;43217;52.694;6.214;2023-02-11T16:42:47;10.95;;;5.70;;
57389;SDS011;43217;52.694;6.214;2023-02-11T16:45:14;12.10;;;7.07;;
57389;SDS011;43217;52.694;6.214;2023-02-11T16:47:40;12.77;;;9.23;;
57389;SDS011;43217;52.694;6.214;2023-02-11T16:50:08;11.52;;;7.00;;
57389;SDS011;43217;52.694;6.214;2023-02-11T16:52:43;11.23;;;4.82;;
57389;SDS011;43217;52.694;6.214;2023-02-11T16:55:10;10.48;;;6.22;;
57389;SDS011;43217;52.694;6.214;2023-02-11T16:57:36;9.60;;;4.93;;
57389;SDS011;43217;52.694;6.214;2023-02-11T17:00:02;13.13;;;6.80;;
57389;SDS011;43217;52.694;6.214;2023-02-11T17:02:32;14.07;;;6.07;;
57389;SDS011;43217;52.694;6.214;2023-02-11T17:05:05;15.65;;;7.80;;
57389;SDS011;43217;52.694;6.214;2023-02-11T17:07:32;15.52;;;7.97;;
57389;SDS011;43217;52.694;6.214;2023-02-11T17:09:58;15.15;;;7.95;;
57389;SDS011;43217;52.694;6.214;2023-02-11T17:12:24;13.35;;;5.90;;
57389;SDS011;43217;52.694;6.214;2023-02-11T17:14:50;18.08;;;6.80;;
57389;SDS011;43217;52.694;6.214;2023-02-11T17:17:16;13.27;;;5.85;;
57389;SDS011;43217;52.694;6.214;2023-02-11T17:19:42;14.07;;;5.65;;
57389;SDS011;43217;52.694;6.214;2023-02-11T17:22:09;12.40;;;6.03;;
57389;SDS011;43217;52.694;6.214;2023-02-11T17:24:35;13.27;;;6.47;;
57389;SDS011;43217;52.694;6.214;2023-02-11T17:27:01;14.00;;;6.63;;
57389;SDS011;43217;52.694;6.214;2023-02-11T17:29:26;12.68;;;6.43;;
57389;SDS011;43217;52.694;6.214;2023-02-11T17:31:52;12.70;;;5.80;;
57389;SDS011;43217;52.694;6.214;2023-02-11T17:34:19;15.48;;;6.80;;
57389;SDS011;43217;52.694;6.214;2023-02-11T17:36:45;14.00;;;6.55;;
57389;SDS011;43217;52.694;6.214;2023-02-11T17:39:11;10.43;;;7.38;;